createdAt,value
2022-10-21T00:01:34.058Z,73.91
2022-10-21T00:04:04.328Z,74.12
2022-10-21T00:06:33.720Z,74.94
2022-10-21T00:09:02.701Z,74.53
2022-10-21T00:11:31.724Z,75.21
2022-10-21T00:14:00.762Z,74.54
2022-10-21T00:16:30.179Z,74.64
2022-10-21T00:18:59.231Z,75.42
2022-10-21T00:21:28.589Z,74.55
2022-10-21T00:23:57.805Z,74.15
2022-10-21T00:26:26.866Z,74.31
2022-10-21T00:28:58.020Z,74.41
2022-10-21T00:31:27.453Z,74.33
2022-10-21T00:33:57.604Z,74.47
2022-10-21T00:36:27.404Z,74.69
2022-10-21T00:38:58.453Z,74.25
2022-10-21T00:41:27.749Z,74.89
2022-10-21T00:44:05.302Z,74.81
2022-10-21T00:46:45.525Z,74.59
2022-10-21T00:49:32.980Z,75.42
2022-10-21T00:52:05.304Z,74.88
2022-10-21T00:54:35.582Z,75.25
2022-10-21T00:57:05.610Z,75.21
2022-10-21T00:59:40.012Z,75.20
2022-10-21T01:02:12.711Z,75.48
2022-10-21T01:04:44.313Z,74.79
2022-10-21T01:07:14.831Z,75.86
2022-10-21T01:09:45.261Z,75.72
2022-10-21T01:12:33.368Z,75.13
2022-10-21T01:15:39.452Z,74.99
2022-10-21T01:18:41.146Z,75.65
2022-10-21T01:21:32.402Z,75.21
2022-10-21T01:24:44.509Z,74.42
2022-10-21T01:27:21.820Z,75.13
2022-10-21T01:30:10.609Z,75.18
2022-10-21T01:33:04.005Z,75.33
2022-10-21T01:35:52.043Z,74.38
2022-10-21T01:38:25.852Z,74.16
2022-10-21T01:41:18.927Z,73.01
2022-10-21T01:44:17.483Z,73.28
2022-10-21T01:47:07.645Z,73.31
2022-10-21T01:49:55.057Z,72.85
2022-10-21T01:52:25.351Z,72.50
2022-10-21T01:55:01.292Z,72.40
2022-10-21T01:57:35.263Z,72.97
2022-10-21T02:00:07.705Z,72.44
2022-10-21T02:02:41.836Z,71.98
2022-10-21T02:05:24.320Z,71.67
2022-10-21T02:07:53.882Z,71.51
2022-10-21T02:10:26.814Z,71.01
2022-10-21T02:13:01.752Z,71.31
2022-10-21T02:15:34.352Z,71.24
2022-10-21T02:18:11.151Z,70.88
2022-10-21T02:20:44.335Z,71.02
2022-10-21T02:23:19.411Z,70.67
2022-10-21T02:25:52.118Z,70.38
2022-10-21T02:28:22.900Z,70.28
2022-10-21T02:31:05.833Z,70.75
2022-10-21T02:33:42.420Z,69.79
2022-10-21T02:36:25.495Z,70.07
2022-10-21T02:39:05.721Z,70.03
2022-10-21T02:41:39.602Z,69.71
2022-10-21T02:44:10.233Z,69.41
2022-10-21T02:46:44.096Z,69.24
2022-10-21T02:49:14.228Z,69.38
2022-10-21T02:51:45.112Z,69.41
2022-10-21T02:54:15.466Z,69.25
2022-10-21T02:56:46.081Z,68.95
2022-10-21T02:59:15.541Z,68.81
2022-10-21T03:01:44.866Z,68.43
2022-10-21T03:04:14.805Z,68.00
2022-10-21T03:06:44.905Z,67.78
2022-10-21T03:09:15.057Z,67.54
2022-10-21T03:11:45.264Z,67.59
2022-10-21T03:14:15.638Z,67.03
2022-10-21T03:16:45.080Z,66.88
2022-10-21T03:19:14.301Z,65.93
2022-10-21T03:21:44.981Z,65.95
2022-10-21T03:24:19.879Z,65.60
2022-10-21T03:26:58.659Z,65.68
2022-10-21T03:29:28.976Z,65.70
2022-10-21T03:31:58.834Z,65.42
2022-10-21T03:34:28.965Z,65.24
2022-10-21T03:36:59.270Z,64.04
2022-10-21T03:39:28.940Z,63.62
2022-10-21T03:41:58.579Z,63.17
2022-10-21T03:44:27.523Z,63.55
2022-10-21T03:46:56.889Z,63.18
2022-10-21T03:49:26.459Z,63.06
2022-10-21T03:51:55.628Z,62.86
2022-10-21T03:54:24.798Z,62.71
2022-10-21T03:56:54.118Z,62.41
2022-10-21T03:59:23.444Z,61.46
2022-10-21T04:01:52.492Z,60.90
2022-10-21T04:04:21.761Z,61.19
2022-10-21T04:06:50.804Z,60.65
2022-10-21T04:09:19.903Z,60.02
2022-10-21T04:11:49.247Z,59.93
2022-10-21T04:14:18.271Z,60.49
2022-10-21T04:16:48.029Z,60.64
2022-10-21T04:19:21.819Z,59.83
2022-10-21T04:21:51.553Z,57.38
2022-10-21T04:24:20.499Z,57.83
2022-10-21T04:26:49.738Z,58.11
2022-10-21T04:29:18.733Z,57.44
2022-10-21T04:31:47.855Z,57.54
2022-10-21T04:34:17.463Z,57.04
2022-10-21T04:36:46.387Z,56.17
2022-10-21T04:39:15.510Z,55.64
2022-10-21T04:41:46.702Z,55.84
2022-10-21T04:44:15.914Z,55.14
2022-10-21T04:46:44.949Z,54.81
2022-10-21T04:49:14.094Z,54.06
2022-10-21T04:51:43.149Z,54.28
2022-10-21T04:54:14.500Z,54.29
2022-10-21T04:56:44.158Z,53.98
2022-10-21T04:59:13.351Z,53.27
2022-10-21T05:01:43.057Z,53.36
2022-10-21T05:04:12.260Z,53.53
2022-10-21T05:06:41.480Z,52.59
2022-10-21T05:09:11.239Z,52.75
2022-10-21T05:11:40.651Z,51.79
2022-10-21T05:14:09.848Z,50.27
2022-10-21T05:16:39.201Z,50.39
2022-10-21T05:19:08.592Z,49.62
2022-10-21T05:24:11.921Z,49.75
2022-10-21T05:26:40.873Z,49.74
2022-10-21T05:29:10.473Z,47.94
2022-10-21T05:31:41.252Z,48.30
2022-10-21T05:34:13.596Z,48.03
2022-10-21T05:36:43.728Z,48.14
2022-10-21T05:39:12.986Z,46.89
2022-10-21T05:41:45.491Z,46.95
2022-10-21T05:44:17.412Z,46.71
2022-10-21T05:46:46.934Z,47.13
2022-10-21T05:49:16.384Z,46.25
2022-10-21T05:51:46.328Z,47.24
2022-10-21T05:54:15.772Z,47.09
2022-10-21T05:56:46.539Z,46.17
2022-10-21T05:59:16.079Z,46.40
2022-10-21T06:01:46.488Z,46.03
2022-10-21T06:04:15.794Z,47.44
2022-10-21T06:06:45.304Z,46.39
2022-10-21T06:09:14.718Z,45.59
2022-10-21T06:11:44.648Z,45.14
2022-10-21T06:14:13.699Z,45.97
2022-10-21T06:16:43.158Z,45.94
2022-10-21T06:19:12.375Z,45.00
2022-10-21T06:21:41.562Z,44.38
2022-10-21T06:24:13.367Z,44.05
2022-10-21T06:26:42.640Z,44.42
2022-10-21T06:29:12.078Z,43.84
2022-10-21T06:31:41.550Z,43.29
2022-10-21T06:34:10.834Z,43.19
2022-10-21T06:36:39.916Z,44.21
2022-10-21T06:39:10.393Z,42.56
2022-10-21T06:41:39.860Z,42.74
2022-10-21T06:44:08.723Z,42.08
2022-10-21T06:46:38.052Z,42.38
2022-10-21T06:49:07.524Z,43.95
2022-10-21T06:51:36.679Z,44.08
2022-10-21T06:54:05.610Z,43.65
2022-10-21T06:56:35.154Z,43.11
2022-10-21T06:59:04.824Z,42.47
2022-10-21T07:02:01.816Z,42.97
2022-10-21T07:04:27.131Z,42.71
2022-10-21T07:06:56.706Z,43.18
2022-10-21T07:09:26.454Z,43.09
2022-10-21T07:11:55.685Z,42.93
2022-10-21T07:14:26.611Z,41.21
2022-10-21T07:16:56.110Z,41.62
2022-10-21T07:19:25.123Z,41.71
2022-10-21T07:21:54.809Z,40.83
2022-10-21T07:24:24.091Z,40.87
2022-10-21T07:26:53.273Z,41.74
2022-10-21T07:29:22.696Z,40.92
2022-10-21T07:31:52.323Z,39.69
2022-10-21T07:34:21.746Z,40.44
2022-10-21T07:36:53.836Z,40.85
2022-10-21T07:39:26.689Z,41.68
2022-10-21T07:41:58.844Z,42.89
2022-10-21T07:44:28.820Z,42.76
2022-10-21T07:46:58.248Z,41.99
2022-10-21T07:49:27.259Z,42.82
2022-10-21T07:51:56.515Z,42.24
2022-10-21T07:54:25.732Z,42.73
2022-10-21T07:56:55.195Z,41.94
2022-10-21T07:59:25.029Z,42.07
2022-10-21T08:01:55.201Z,42.97
2022-10-21T08:04:32.975Z,42.38
2022-10-21T08:07:03.494Z,41.62
2022-10-21T08:09:32.629Z,41.66
2022-10-21T08:12:01.666Z,42.43
2022-10-21T08:14:32.230Z,42.65
2022-10-21T08:17:01.438Z,42.22
2022-10-21T08:19:31.158Z,43.22
2022-10-21T08:22:00.714Z,42.82
2022-10-21T08:24:30.159Z,42.63
2022-10-21T08:26:59.355Z,42.83
2022-10-21T08:29:28.599Z,42.21
2022-10-21T08:31:57.861Z,41.92
2022-10-21T08:34:26.982Z,42.29
2022-10-21T08:36:56.155Z,44.18
2022-10-21T08:39:28.885Z,43.55
2022-10-21T08:42:00.762Z,43.46
2022-10-21T08:44:49.324Z,44.22
2022-10-21T08:47:32.098Z,43.77
2022-10-21T08:50:23.660Z,44.56
2022-10-21T08:53:03.435Z,44.68
2022-10-21T08:55:42.099Z,45.14
2022-10-21T08:58:17.373Z,45.70
2022-10-21T09:00:52.302Z,45.66
2022-10-21T09:03:41.889Z,45.71
2022-10-21T09:06:50.844Z,44.58
2022-10-21T09:09:34.303Z,44.89
2022-10-21T09:12:19.784Z,46.17
2022-10-21T09:15:23.612Z,46.83
2022-10-21T09:18:18.694Z,47.82
2022-10-21T09:21:22.717Z,47.31
2022-10-21T09:24:04.531Z,46.94
2022-10-21T09:26:46.509Z,46.70
2022-10-21T09:29:21.992Z,47.68
2022-10-21T09:31:56.160Z,48.31
2022-10-21T09:34:41.344Z,47.90
2022-10-21T09:37:25.149Z,48.11
2022-10-21T09:40:18.353Z,48.50
2022-10-21T09:42:50.310Z,47.84
2022-10-21T09:45:40.046Z,47.67
2022-10-21T09:49:00.879Z,47.51
2022-10-21T09:51:35.213Z,47.90
2022-10-21T09:54:11.138Z,47.99
2022-10-21T09:57:27.223Z,47.48
2022-10-21T10:00:00.573Z,48.48
2022-10-21T10:02:46.022Z,48.78
2022-10-21T10:05:59.926Z,48.37
2022-10-21T10:09:15.246Z,49.11
2022-10-21T10:12:49.954Z,48.86
2022-10-21T10:15:35.203Z,48.36
2022-10-21T10:18:24.787Z,48.78
2022-10-21T10:21:16.098Z,47.86
2022-10-21T10:23:50.211Z,49.05
2022-10-21T10:26:24.706Z,49.88
2022-10-21T10:29:02.263Z,49.51
2022-10-21T10:31:35.372Z,49.31
2022-10-21T10:34:08.500Z,50.36
2022-10-21T10:36:42.261Z,49.96
2022-10-21T10:39:40.334Z,50.25
2022-10-21T10:42:19.879Z,50.72
2022-10-21T10:44:53.202Z,51.08
2022-10-21T10:47:29.330Z,51.04
2022-10-21T10:49:59.141Z,49.86
2022-10-21T10:52:33.838Z,50.84
2022-10-21T10:55:12.617Z,50.62
2022-10-21T10:57:58.509Z,50.19
2022-10-21T11:00:44.005Z,50.60
2022-10-21T11:03:25.852Z,51.01
2022-10-21T11:06:07.210Z,50.76
2022-10-21T11:08:44.683Z,51.08
2022-10-21T11:11:26.136Z,51.66
2022-10-21T11:13:55.701Z,51.99
2022-10-21T11:16:50.498Z,51.87
2022-10-21T11:19:32.114Z,51.47
2022-10-21T11:22:17.445Z,51.28
2022-10-21T11:25:04.637Z,51.52
2022-10-21T11:28:04.920Z,51.43
2022-10-21T11:30:37.074Z,51.58
2022-10-21T11:33:07.225Z,52.11
2022-10-21T11:35:56.837Z,52.15
2022-10-21T11:38:35.742Z,52.25
2022-10-21T11:41:31.909Z,52.48
2022-10-21T11:44:05.193Z,52.39
2022-10-21T11:46:41.671Z,53.12
2022-10-21T11:49:40.147Z,53.82
2022-10-21T11:52:29.658Z,53.46
2022-10-21T11:55:11.654Z,54.12
2022-10-21T11:57:47.083Z,53.55
2022-10-21T12:00:21.738Z,53.55
2022-10-21T12:03:19.342Z,54.05
2022-10-21T12:06:14.038Z,54.13
2022-10-21T12:09:22.867Z,54.32
2022-10-21T12:11:57.626Z,54.60
2022-10-21T12:15:00.550Z,54.67
2022-10-21T12:17:34.548Z,54.19
2022-10-21T12:20:08.373Z,55.04
2022-10-21T12:22:38.416Z,55.28
2022-10-21T12:25:29.272Z,54.89
2022-10-21T12:28:06.792Z,55.16
2022-10-21T12:31:18.647Z,55.34
2022-10-21T12:33:50.643Z,55.59
2022-10-21T12:36:26.838Z,55.99
2022-10-21T12:38:58.530Z,56.96
2022-10-21T12:41:39.292Z,57.10
2022-10-21T12:44:26.413Z,58.10
2022-10-21T12:47:02.553Z,58.83
2022-10-21T12:49:34.636Z,59.03
2022-10-21T12:52:11.282Z,58.54
2022-10-21T12:54:58.221Z,59.41
2022-10-21T12:57:40.040Z,59.00
2022-10-21T13:03:13.918Z,59.55
2022-10-21T13:05:42.955Z,60.00
2022-10-21T13:08:24.111Z,59.98
2022-10-21T13:11:06.112Z,60.27
2022-10-21T13:13:40.941Z,59.96
2022-10-21T13:16:22.636Z,59.86
2022-10-21T13:19:03.409Z,60.30
2022-10-21T13:21:39.849Z,60.58
2022-10-21T13:24:17.344Z,60.68
2022-10-21T13:27:01.420Z,61.28
2022-10-21T13:29:42.351Z,61.42
2022-10-21T13:32:20.070Z,61.76
2022-10-21T13:35:00.608Z,61.95
2022-10-21T13:37:32.935Z,61.92
2022-10-21T13:40:14.809Z,62.04
2022-10-21T13:42:50.580Z,62.40
2022-10-21T13:45:31.765Z,62.76
2022-10-21T13:48:19.030Z,62.58
2022-10-21T13:50:54.132Z,61.47
2022-10-21T13:53:27.562Z,61.67
2022-10-21T13:56:03.389Z,61.81
2022-10-21T13:58:40.214Z,61.76
2022-10-21T14:01:22.675Z,61.95
2022-10-21T14:03:53.207Z,61.72
2022-10-21T14:06:24.007Z,62.24
2022-10-21T14:08:55.761Z,62.38
2022-10-21T14:11:34.795Z,62.08
2022-10-21T14:14:11.311Z,62.51
2022-10-21T14:16:50.556Z,62.95
2022-10-21T14:19:24.647Z,63.54
2022-10-21T14:21:56.276Z,63.67
2022-10-21T14:24:35.517Z,63.80
2022-10-21T14:27:05.956Z,63.61
2022-10-21T14:29:37.734Z,63.99
2022-10-21T14:32:07.489Z,63.96
2022-10-21T14:34:37.894Z,65.03
2022-10-21T14:37:12.769Z,65.08
2022-10-21T14:39:42.237Z,65.50
2022-10-21T14:42:25.124Z,65.47
2022-10-21T14:45:04.654Z,65.25
2022-10-21T14:47:34.000Z,65.12
2022-10-21T14:50:05.269Z,64.70
2022-10-21T14:52:40.193Z,64.81
2022-10-21T14:55:15.559Z,65.17
2022-10-21T14:58:11.558Z,64.86
2022-10-21T15:00:42.978Z,64.84
2022-10-21T15:03:13.743Z,64.81
2022-10-21T15:05:49.485Z,64.76
2022-10-21T15:08:21.721Z,65.07
2022-10-21T15:11:01.480Z,65.23
2022-10-21T15:13:30.642Z,64.91
2022-10-21T15:16:02.007Z,65.01
2022-10-21T15:18:40.335Z,65.00
2022-10-21T15:21:13.844Z,64.57
2022-10-21T15:23:50.266Z,64.34
2022-10-21T15:26:35.345Z,63.95
2022-10-21T15:29:23.807Z,64.30
2022-10-21T15:31:56.216Z,64.56
2022-10-21T15:34:26.443Z,64.76
2022-10-21T15:36:55.731Z,64.42
2022-10-21T15:39:25.094Z,64.39
2022-10-21T15:41:56.105Z,63.98
2022-10-21T15:44:33.641Z,64.01
2022-10-21T15:47:06.700Z,64.16
2022-10-21T15:49:47.860Z,64.28
2022-10-21T15:52:17.505Z,64.03
2022-10-21T15:54:46.530Z,64.04
2022-10-21T15:57:23.202Z,63.62
2022-10-21T15:59:52.628Z,63.18
2022-10-21T16:02:21.708Z,63.13
2022-10-21T16:04:54.300Z,62.87
2022-10-21T16:07:24.631Z,61.89
2022-10-21T16:09:53.872Z,61.98
2022-10-21T16:12:23.719Z,61.72
2022-10-21T16:14:53.215Z,61.68
2022-10-21T16:17:24.711Z,61.25
2022-10-21T16:19:54.565Z,61.11
2022-10-21T16:22:24.256Z,61.34
2022-10-21T16:24:53.423Z,61.26
2022-10-21T16:27:43.006Z,61.39
2022-10-21T16:30:25.158Z,61.23
2022-10-21T16:32:54.740Z,62.34
2022-10-21T16:35:24.080Z,63.21
2022-10-21T16:37:53.460Z,63.47
2022-10-21T16:40:36.106Z,62.65
2022-10-21T16:43:05.287Z,62.19
2022-10-21T16:45:34.665Z,62.39
2022-10-21T16:48:06.396Z,62.01
2022-10-21T16:50:42.818Z,62.24
2022-10-21T16:53:17.718Z,62.08
2022-10-21T16:55:46.942Z,62.09
2022-10-21T16:58:16.372Z,61.37
2022-10-21T17:00:47.001Z,61.35
2022-10-21T17:03:16.292Z,61.73
2022-10-21T17:05:45.390Z,61.41
2022-10-21T17:08:14.544Z,61.62
2022-10-21T17:10:44.362Z,60.91
2022-10-21T17:13:14.059Z,61.16
2022-10-21T17:15:43.359Z,60.86
2022-10-21T17:18:15.524Z,60.74
2022-10-21T17:20:45.272Z,60.67
2022-10-21T17:23:14.550Z,61.30
2022-10-21T17:25:43.765Z,61.21
2022-10-21T17:28:13.528Z,61.36
2022-10-21T17:30:42.794Z,61.72
2022-10-21T17:33:14.299Z,61.65
2022-10-21T17:35:44.074Z,61.75
2022-10-21T17:38:14.611Z,61.30
2022-10-21T17:40:43.925Z,61.50
2022-10-21T17:43:13.002Z,61.35
2022-10-21T17:45:42.522Z,61.39
2022-10-21T17:48:12.123Z,61.65
2022-10-21T17:50:41.491Z,61.82
2022-10-21T17:53:10.791Z,62.08
2022-10-21T17:55:39.848Z,61.91
2022-10-21T17:58:09.103Z,62.46
2022-10-21T18:00:44.487Z,61.94
2022-10-21T18:03:14.869Z,61.09
2022-10-21T18:05:43.998Z,61.30
2022-10-21T18:08:13.398Z,61.10
2022-10-21T18:10:42.726Z,60.96
2022-10-21T18:13:11.834Z,60.46
2022-10-21T18:15:41.368Z,60.46
2022-10-21T18:18:10.631Z,60.38
2022-10-21T18:20:40.345Z,60.41
2022-10-21T18:23:09.774Z,60.44
2022-10-21T18:25:41.204Z,60.38
2022-10-21T18:28:11.099Z,60.64
2022-10-21T18:30:44.298Z,60.34
2022-10-21T18:33:13.780Z,60.24
2022-10-21T18:35:42.898Z,60.48
2022-10-21T18:38:12.184Z,60.61
2022-10-21T18:40:47.126Z,60.79
2022-10-21T18:43:25.794Z,60.44
2022-10-21T18:45:57.161Z,60.52
2022-10-21T18:48:26.394Z,60.52
2022-10-21T18:50:55.571Z,60.67
2022-10-21T18:53:24.973Z,60.51
2022-10-21T18:55:53.981Z,60.88
2022-10-21T18:58:23.618Z,61.08
2022-10-21T19:00:52.852Z,60.90
2022-10-21T19:03:22.085Z,62.65
2022-10-21T19:05:51.676Z,62.56
2022-10-21T19:08:20.922Z,62.62
2022-10-21T19:10:50.276Z,62.34
2022-10-21T19:13:19.625Z,63.05
2022-10-21T19:15:48.846Z,63.03
2022-10-21T19:18:18.027Z,61.74
2022-10-21T19:20:47.764Z,61.49
2022-10-21T19:23:17.437Z,62.07
2022-10-21T19:25:46.763Z,61.79
2022-10-21T19:28:16.135Z,61.38
2022-10-21T19:30:46.868Z,60.10
2022-10-21T19:33:16.131Z,59.97
2022-10-21T19:35:45.059Z,59.70
2022-10-21T19:38:20.811Z,59.50
2022-10-21T19:41:01.847Z,59.74
2022-10-21T19:43:31.157Z,59.24
2022-10-21T19:46:03.827Z,58.50
2022-10-21T19:48:32.979Z,58.06
2022-10-21T19:51:02.297Z,57.76
2022-10-21T19:53:35.365Z,57.85
2022-10-21T19:56:06.482Z,57.79
2022-10-21T19:58:38.639Z,57.82
2022-10-21T20:01:19.325Z,57.71
2022-10-21T20:03:50.600Z,58.23
2022-10-21T20:06:26.662Z,58.93
2022-10-21T20:08:58.229Z,59.62
2022-10-21T20:11:28.689Z,59.35
2022-10-21T20:13:58.381Z,59.77
2022-10-21T20:16:32.795Z,59.36
2022-10-21T20:19:04.256Z,59.59
2022-10-21T20:21:34.627Z,60.07
2022-10-21T20:24:04.112Z,60.08
2022-10-21T20:26:33.409Z,60.65
2022-10-21T20:29:03.840Z,60.45
2022-10-21T20:31:33.202Z,60.58
2022-10-21T20:34:02.398Z,61.70
2022-10-21T20:36:33.947Z,62.87
2022-10-21T20:39:04.288Z,61.41
2022-10-21T20:41:38.355Z,60.41
2022-10-21T20:44:12.017Z,59.81
2022-10-21T20:46:41.275Z,59.99
2022-10-21T20:49:11.642Z,60.10
2022-10-21T20:51:45.717Z,60.13
2022-10-21T20:54:18.991Z,59.22
2022-10-21T20:56:48.358Z,59.24
2022-10-21T20:59:18.475Z,58.94
2022-10-21T21:01:49.215Z,58.64
2022-10-21T21:04:24.573Z,58.53
2022-10-21T21:06:54.296Z,58.34
2022-10-21T21:10:01.007Z,58.31
2022-10-21T21:12:12.705Z,58.60
2022-10-21T21:14:41.757Z,59.11
2022-10-21T21:17:11.301Z,58.85
2022-10-21T21:19:41.209Z,59.22
2022-10-21T21:22:10.401Z,59.51
2022-10-21T21:24:39.514Z,60.49
2022-10-21T21:27:08.878Z,60.95
2022-10-21T21:29:37.865Z,61.33
2022-10-21T21:32:07.849Z,61.56
2022-10-21T21:34:37.171Z,61.61
2022-10-21T21:37:06.174Z,60.89
2022-10-21T21:39:35.419Z,60.49
2022-10-21T21:42:04.605Z,60.46
2022-10-21T21:44:33.967Z,60.49
2022-10-21T21:47:03.354Z,60.38
2022-10-21T21:49:32.449Z,60.95
2022-10-21T21:52:01.779Z,60.77
2022-10-21T21:54:31.057Z,59.93
2022-10-21T21:57:26.286Z,59.43
2022-10-21T21:59:49.590Z,59.45
2022-10-21T22:02:18.645Z,59.45
2022-10-21T22:04:48.048Z,59.27
2022-10-21T22:07:17.200Z,59.68
2022-10-21T22:09:46.422Z,59.60
2022-10-21T22:12:17.030Z,59.78
2022-10-21T22:14:46.975Z,59.46
2022-10-21T22:17:16.256Z,59.72
2022-10-21T22:19:45.441Z,59.80
2022-10-21T22:22:14.828Z,59.82
2022-10-21T22:24:44.001Z,59.45
2022-10-21T22:27:13.147Z,59.88
2022-10-21T22:29:42.306Z,59.93
2022-10-21T22:32:13.614Z,59.94
2022-10-21T22:34:43.706Z,59.66
2022-10-21T22:37:12.807Z,59.89
2022-10-21T22:39:41.919Z,59.97
2022-10-21T22:42:11.111Z,59.79
2022-10-21T22:44:40.249Z,60.31
2022-10-21T22:47:09.407Z,60.00
2022-10-21T22:49:38.772Z,59.38
2022-10-21T22:52:08.332Z,58.85
2022-10-21T22:54:49.063Z,58.49
2022-10-21T22:57:19.105Z,58.18
2022-10-21T22:59:52.814Z,58.53
2022-10-21T23:02:23.001Z,58.19
2022-10-21T23:04:52.030Z,58.06
2022-10-21T23:07:21.084Z,58.51
2022-10-21T23:09:52.467Z,58.82
2022-10-21T23:12:21.954Z,59.31
2022-10-21T23:14:51.140Z,59.24
2022-10-21T23:17:20.339Z,59.65
2022-10-21T23:19:49.488Z,59.88
2022-10-21T23:22:19.000Z,60.04
2022-10-21T23:24:50.259Z,60.49
2022-10-21T23:27:19.547Z,60.78
2022-10-21T23:29:48.666Z,61.09
2022-10-21T23:32:17.808Z,61.10
2022-10-21T23:34:46.994Z,61.12
2022-10-21T23:37:16.157Z,60.43
2022-10-21T23:39:45.809Z,60.72
2022-10-21T23:42:14.993Z,60.63
2022-10-21T23:44:43.981Z,60.68
2022-10-21T23:47:13.412Z,60.34
2022-10-21T23:49:42.380Z,60.23
2022-10-21T23:52:11.447Z,60.19
2022-10-21T23:54:40.651Z,60.26
2022-10-21T23:57:09.868Z,60.63
2022-10-21T23:59:39.030Z,61.21
